sensor_id;sensor_type;location;lat;lon;timestamp;pressure;altitude;pressure_sealevel;temperature;humidity
26531;BME280;14201;43.188;24.160;2023-07-16T00:02:04;99661.91;;;27.06;73.71
26531;BME280;14201;43.188;24.160;2023-07-16T00:04:30;99657.63;;;26.99;74.00
26531;BME280;14201;43.188;24.160;2023-07-16T00:06:56;99658.38;;;27.04;73.83
26531;BME280;14201;43.188;24.160;2023-07-16T00:09:22;99660.09;;;27.07;73.75
26531;BME280;14201;43.188;24.160;2023-07-16T00:11:47;99654.78;;;27.05;73.61
26531;BME280;14201;43.188;24.160;2023-07-16T00:14:13;99656.84;;;26.94;74.14
26531;BME280;14201;43.188;24.160;2023-07-16T00:16:38;99656.53;;;26.70;75.09
26531;BME280;14201;43.188;24.160;2023-07-16T00:19:04;99648.75;;;26.60;75.65
26531;BME280;14201;43.188;24.160;2023-07-16T00:21:30;99647.69;;;26.67;75.55
26531;BME280;14201;43.188;24.160;2023-07-16T00:23:55;99649.31;;;26.74;75.10
26531;BME280;14201;43.188;24.160;2023-07-16T00:26:21;99650.13;;;26.78;74.81
26531;BME280;14201;43.188;24.160;2023-07-16T00:28:48;99643.44;;;26.58;75.57
26531;BME280;14201;43.188;24.160;2023-07-16T00:31:14;99640.22;;;26.42;76.23
26531;BME280;14201;43.188;24.160;2023-07-16T00:33:39;99644.66;;;26.43;76.44
26531;BME280;14201;43.188;24.160;2023-07-16T00:36:05;99635.00;;;26.36;76.75
26531;BME280;14201;43.188;24.160;2023-07-16T00:38:30;99638.47;;;26.41;76.51
26531;BME280;14201;43.188;24.160;2023-07-16T00:40:56;99633.13;;;26.41;76.51
26531;BME280;14201;43.188;24.160;2023-07-16T00:43:22;99633.13;;;26.41;76.12
26531;BME280;14201;43.188;24.160;2023-07-16T00:45:48;99629.78;;;26.31;76.77
26531;BME280;14201;43.188;24.160;2023-07-16T00:48:14;99635.47;;;26.16;77.40
26531;BME280;14201;43.188;24.160;2023-07-16T00:50:40;99640.22;;;26.02;78.59
26531;BME280;14201;43.188;24.160;2023-07-16T00:53:07;99639.47;;;25.93;79.20
26531;BME280;14201;43.188;24.160;2023-07-16T00:55:35;99640.44;;;25.91;79.34
26531;BME280;14201;43.188;24.160;2023-07-16T00:58:05;99639.56;;;25.89;79.64
26531;BME280;14201;43.188;24.160;2023-07-16T01:00:36;99639.66;;;25.84;80.17
26531;BME280;14201;43.188;24.160;2023-07-16T01:03:04;99639.81;;;25.77;80.60
26531;BME280;14201;43.188;24.160;2023-07-16T01:08:07;99639.59;;;25.86;80.32
26531;BME280;14201;43.188;24.160;2023-07-16T01:10:34;99636.13;;;25.82;80.39
26531;BME280;14201;43.188;24.160;2023-07-16T01:13:00;99629.94;;;25.80;80.36
26531;BME280;14201;43.188;24.160;2023-07-16T01:15:26;99632.59;;;25.80;80.38
26531;BME280;14201;43.188;24.160;2023-07-16T01:17:53;99643.97;;;25.90;80.41
26531;BME280;14201;43.188;24.160;2023-07-16T01:20:18;99634.09;;;25.97;79.90
26531;BME280;14201;43.188;24.160;2023-07-16T01:28:50;99631.84;;;26.19;78.59
26531;BME280;14201;43.188;24.160;2023-07-16T01:31:19;99629.00;;;26.26;78.31
26531;BME280;14201;43.188;24.160;2023-07-16T01:33:50;99626.44;;;26.22;78.52
26531;BME280;14201;43.188;24.160;2023-07-16T01:36:17;99627.97;;;26.32;77.98
26531;BME280;14201;43.188;24.160;2023-07-16T01:38:44;99629.13;;;26.20;78.20
26531;BME280;14201;43.188;24.160;2023-07-16T01:41:11;99626.50;;;26.19;78.34
26531;BME280;14201;43.188;24.160;2023-07-16T01:43:36;99635.28;;;26.24;78.25
26531;BME280;14201;43.188;24.160;2023-07-16T01:46:02;99627.22;;;26.27;77.81
26531;BME280;14201;43.188;24.160;2023-07-16T01:48:32;99633.59;;;26.20;77.37
26531;BME280;14201;43.188;24.160;2023-07-16T01:50:58;99628.44;;;26.12;77.68
26531;BME280;14201;43.188;24.160;2023-07-16T01:53:24;99635.97;;;25.90;79.04
26531;BME280;14201;43.188;24.160;2023-07-16T01:55:50;99635.97;;;25.90;79.08
26531;BME280;14201;43.188;24.160;2023-07-16T01:58:15;99629.91;;;25.82;79.64
26531;BME280;14201;43.188;24.160;2023-07-16T02:00:42;99631.72;;;25.80;79.75
26531;BME280;14201;43.188;24.160;2023-07-16T02:03:07;99626.41;;;25.78;80.01
26531;BME280;14201;43.188;24.160;2023-07-16T02:05:33;99628.00;;;25.88;79.35
26531;BME280;14201;43.188;24.160;2023-07-16T02:07:58;99634.28;;;25.86;79.60
26531;BME280;14201;43.188;24.160;2023-07-16T02:10:24;99631.47;;;25.93;79.02
26531;BME280;14201;43.188;24.160;2023-07-16T02:12:50;99633.16;;;25.98;78.56
26531;BME280;14201;43.188;24.160;2023-07-16T02:15:16;99627.91;;;25.95;78.41
26531;BME280;14201;43.188;24.160;2023-07-16T02:17:43;99626.34;;;25.83;78.77
26531;BME280;14201;43.188;24.160;2023-07-16T02:20:09;99624.56;;;25.82;79.43
26531;BME280;14201;43.188;24.160;2023-07-16T02:22:36;99627.25;;;25.80;79.37
26531;BME280;14201;43.188;24.160;2023-07-16T02:25:02;99624.97;;;25.62;80.07
26531;BME280;14201;43.188;24.160;2023-07-16T02:27:28;99632.06;;;25.63;79.80
26531;BME280;14201;43.188;24.160;2023-07-16T02:29:53;99629.50;;;25.58;80.10
26531;BME280;14201;43.188;24.160;2023-07-16T02:32:19;99628.50;;;25.64;80.10
26531;BME280;14201;43.188;24.160;2023-07-16T02:34:44;99629.31;;;25.67;79.65
26531;BME280;14201;43.188;24.160;2023-07-16T02:37:10;99627.66;;;25.60;79.27
26531;BME280;14201;43.188;24.160;2023-07-16T02:39:36;99637.63;;;25.50;79.44
26531;BME280;14201;43.188;24.160;2023-07-16T02:42:01;99634.59;;;25.21;81.14
26531;BME280;14201;43.188;24.160;2023-07-16T02:44:27;99635.63;;;25.12;81.72
26531;BME280;14201;43.188;24.160;2023-07-16T02:46:53;99633.09;;;25.04;82.55
26531;BME280;14201;43.188;24.160;2023-07-16T02:49:19;99633.06;;;25.07;82.54
26531;BME280;14201;43.188;24.160;2023-07-16T02:51:44;99638.38;;;25.07;82.38
26531;BME280;14201;43.188;24.160;2023-07-16T02:54:10;99634.16;;;24.94;83.02
26531;BME280;14201;43.188;24.160;2023-07-16T02:56:35;99633.44;;;24.83;84.17
26531;BME280;14201;43.188;24.160;2023-07-16T02:59:01;99629.94;;;24.79;84.77
26531;BME280;14201;43.188;24.160;2023-07-16T03:01:26;99648.63;;;24.77;84.91
26531;BME280;14201;43.188;24.160;2023-07-16T03:03:52;99647.69;;;24.82;84.44
26531;BME280;14201;43.188;24.160;2023-07-16T03:06:18;99637.91;;;24.82;84.25
26531;BME280;14201;43.188;24.160;2023-07-16T03:08:43;99639.84;;;24.71;84.92
26531;BME280;14201;43.188;24.160;2023-07-16T03:11:11;99642.53;;;24.69;85.34
26531;BME280;14201;43.188;24.160;2023-07-16T03:13:36;99638.97;;;24.72;85.51
26531;BME280;14201;43.188;24.160;2023-07-16T03:16:02;99641.53;;;24.76;84.89
26531;BME280;14201;43.188;24.160;2023-07-16T03:18:29;99648.50;;;24.85;84.71
26531;BME280;14201;43.188;24.160;2023-07-16T03:20:56;99645.88;;;24.84;84.51
26531;BME280;14201;43.188;24.160;2023-07-16T03:23:22;99646.13;;;24.68;85.51
26531;BME280;14201;43.188;24.160;2023-07-16T03:25:47;99644.53;;;24.55;86.67
26531;BME280;14201;43.188;24.160;2023-07-16T03:28:13;99651.88;;;24.34;88.01
26531;BME280;14201;43.188;24.160;2023-07-16T03:30:39;99657.31;;;24.27;89.26
26531;BME280;14201;43.188;24.160;2023-07-16T03:33:04;99662.72;;;24.19;89.83
26531;BME280;14201;43.188;24.160;2023-07-16T03:35:30;99660.03;;;24.22;89.97
26531;BME280;14201;43.188;24.160;2023-07-16T03:37:56;99659.97;;;24.27;89.78
26531;BME280;14201;43.188;24.160;2023-07-16T03:40:25;99663.59;;;24.21;90.50
26531;BME280;14201;43.188;24.160;2023-07-16T03:42:51;99658.97;;;24.35;89.79
26531;BME280;14201;43.188;24.160;2023-07-16T03:45:16;99668.81;;;24.30;90.33
26531;BME280;14201;43.188;24.160;2023-07-16T03:47:42;99658.91;;;24.40;89.66
26531;BME280;14201;43.188;24.160;2023-07-16T03:50:08;99668.59;;;24.47;89.58
26531;BME280;14201;43.188;24.160;2023-07-16T03:52:34;99672.88;;;24.59;88.74
26531;BME280;14201;43.188;24.160;2023-07-16T03:54:59;99669.34;;;24.59;88.98
26531;BME280;14201;43.188;24.160;2023-07-16T03:57:28;99671.81;;;24.72;88.25
26531;BME280;14201;43.188;24.160;2023-07-16T03:59:53;99673.53;;;24.75;87.76
26531;BME280;14201;43.188;24.160;2023-07-16T04:02:19;99671.63;;;24.83;87.39
26531;BME280;14201;43.188;24.160;2023-07-16T04:04:45;99672.47;;;24.87;87.25
26531;BME280;14201;43.188;24.160;2023-07-16T04:07:10;99672.41;;;24.91;86.96
26531;BME280;14201;43.188;24.160;2023-07-16T04:09:39;99683.09;;;24.90;87.35
26531;BME280;14201;43.188;24.160;2023-07-16T04:12:06;99683.22;;;24.79;87.71
26531;BME280;14201;43.188;24.160;2023-07-16T04:14:32;99680.63;;;24.76;88.83
26531;BME280;14201;43.188;24.160;2023-07-16T04:16:58;99676.28;;;24.70;89.29
26531;BME280;14201;43.188;24.160;2023-07-16T04:19:23;99679.97;;;24.60;89.27
26531;BME280;14201;43.188;24.160;2023-07-16T04:21:49;99689.81;;;24.53;89.52
26531;BME280;14201;43.188;24.160;2023-07-16T04:24:15;99681.88;;;24.49;89.47
26531;BME280;14201;43.188;24.160;2023-07-16T04:26:40;99690.69;;;24.54;89.23
26531;BME280;14201;43.188;24.160;2023-07-16T04:29:06;99693.16;;;24.69;89.23
26531;BME280;14201;43.188;24.160;2023-07-16T04:31:31;99694.75;;;24.81;88.74
26531;BME280;14201;43.188;24.160;2023-07-16T04:33:57;99696.31;;;24.96;88.31
26531;BME280;14201;43.188;24.160;2023-07-16T04:36:23;99693.28;;;25.18;88.15
26531;BME280;14201;43.188;24.160;2023-07-16T04:38:48;99689.44;;;25.37;86.09
26531;BME280;14201;43.188;24.160;2023-07-16T04:41:14;99691.84;;;25.51;85.67
26531;BME280;14201;43.188;24.160;2023-07-16T04:43:39;99696.78;;;25.72;84.55
26531;BME280;14201;43.188;24.160;2023-07-16T04:46:05;99690.19;;;25.93;83.67
26531;BME280;14201;43.188;24.160;2023-07-16T04:48:31;99693.41;;;26.11;84.14
26531;BME280;14201;43.188;24.160;2023-07-16T04:50:56;99698.38;;;26.29;82.21
26531;BME280;14201;43.188;24.160;2023-07-16T04:53:22;99698.91;;;26.47;80.07
26531;BME280;14201;43.188;24.160;2023-07-16T04:55:48;99699.50;;;26.61;78.67
26531;BME280;14201;43.188;24.160;2023-07-16T04:58:15;99704.75;;;26.66;79.17
26531;BME280;14201;43.188;24.160;2023-07-16T05:00:41;99701.00;;;26.73;80.08
26531;BME280;14201;43.188;24.160;2023-07-16T05:03:07;99701.72;;;26.81;80.25
26531;BME280;14201;43.188;24.160;2023-07-16T05:05:32;99702.25;;;26.97;77.27
26531;BME280;14201;43.188;24.160;2023-07-16T05:07:58;99707.25;;;27.11;76.91
26531;BME280;14201;43.188;24.160;2023-07-16T05:10:24;99700.69;;;27.26;76.58
26531;BME280;14201;43.188;24.160;2023-07-16T05:12:50;99706.38;;;27.46;74.75
26531;BME280;14201;43.188;24.160;2023-07-16T05:15:15;99709.31;;;27.70;74.26
26531;BME280;14201;43.188;24.160;2023-07-16T05:17:41;99715.03;;;27.92;73.90
26531;BME280;14201;43.188;24.160;2023-07-16T05:20:07;99710.03;;;28.11;71.71
26531;BME280;14201;43.188;24.160;2023-07-16T05:22:34;99715.91;;;28.24;72.81
26531;BME280;14201;43.188;24.160;2023-07-16T05:25:00;99720.53;;;28.48;71.31
26531;BME280;14201;43.188;24.160;2023-07-16T05:27:26;99728.00;;;28.69;70.01
26531;BME280;14201;43.188;24.160;2023-07-16T05:29:51;99723.53;;;28.97;68.14
26531;BME280;14201;43.188;24.160;2023-07-16T05:32:17;99726.84;;;29.05;67.93
26531;BME280;14201;43.188;24.160;2023-07-16T05:34:43;99724.16;;;29.34;66.80
26531;BME280;14201;43.188;24.160;2023-07-16T05:37:08;99725.94;;;29.60;64.85
26531;BME280;14201;43.188;24.160;2023-07-16T05:39:34;99722.88;;;29.72;65.18
26531;BME280;14201;43.188;24.160;2023-07-16T05:42:00;99723.09;;;29.91;66.10
26531;BME280;14201;43.188;24.160;2023-07-16T05:44:28;99721.00;;;30.25;63.16
26531;BME280;14201;43.188;24.160;2023-07-16T05:46:53;99718.63;;;30.40;61.94
26531;BME280;14201;43.188;24.160;2023-07-16T05:49:19;99727.97;;;30.54;61.75
26531;BME280;14201;43.188;24.160;2023-07-16T05:51:44;99730.13;;;30.68;61.09
26531;BME280;14201;43.188;24.160;2023-07-16T05:54:10;99732.31;;;30.80;61.08
26531;BME280;14201;43.188;24.160;2023-07-16T05:56:36;99726.31;;;30.97;60.47
26531;BME280;14201;43.188;24.160;2023-07-16T05:59:01;99728.50;;;31.09;59.78
26531;BME280;14201;43.188;24.160;2023-07-16T06:01:27;99731.13;;;31.11;59.05
26531;BME280;14201;43.188;24.160;2023-07-16T06:03:53;99728.16;;;31.17;60.40
26531;BME280;14201;43.188;24.160;2023-07-16T06:06:19;99726.19;;;31.22;59.38
26531;BME280;14201;43.188;24.160;2023-07-16T06:08:45;99726.44;;;31.16;59.49
26531;BME280;14201;43.188;24.160;2023-07-16T06:11:12;99729.06;;;31.17;58.99
26531;BME280;14201;43.188;24.160;2023-07-16T06:13:39;99726.78;;;31.29;60.18
26531;BME280;14201;43.188;24.160;2023-07-16T06:16:05;99727.28;;;31.38;60.04
26531;BME280;14201;43.188;24.160;2023-07-16T06:18:31;99730.16;;;31.56;58.00
26531;BME280;14201;43.188;24.160;2023-07-16T06:20:56;99730.31;;;31.73;57.12
26531;BME280;14201;43.188;24.160;2023-07-16T06:23:22;99726.66;;;31.95;57.47
26531;BME280;14201;43.188;24.160;2023-07-16T06:25:47;99731.44;;;32.29;56.85
26531;BME280;14201;43.188;24.160;2023-07-16T06:28:15;99731.09;;;32.37;55.62
26531;BME280;14201;43.188;24.160;2023-07-16T06:30:40;99729.19;;;32.39;55.36
26531;BME280;14201;43.188;24.160;2023-07-16T06:33:06;99735.81;;;32.51;55.61
26531;BME280;14201;43.188;24.160;2023-07-16T06:35:32;99732.88;;;32.57;54.48
26531;BME280;14201;43.188;24.160;2023-07-16T06:37:58;99733.97;;;32.72;53.68
26531;BME280;14201;43.188;24.160;2023-07-16T06:40:24;99730.09;;;32.96;53.14
26531;BME280;14201;43.188;24.160;2023-07-16T06:42:50;99728.19;;;33.18;51.87
26531;BME280;14201;43.188;24.160;2023-07-16T06:45:17;99726.88;;;33.44;52.65
26531;BME280;14201;43.188;24.160;2023-07-16T06:47:43;99731.91;;;33.69;51.39
26531;BME280;14201;43.188;24.160;2023-07-16T06:50:09;99727.59;;;34.00;51.96
26531;BME280;14201;43.188;24.160;2023-07-16T06:52:35;99736.59;;;34.00;50.54
26531;BME280;14201;43.188;24.160;2023-07-16T06:55:00;99726.19;;;33.75;51.76
26531;BME280;14201;43.188;24.160;2023-07-16T06:57:26;99732.59;;;34.07;51.40
26531;BME280;14201;43.188;24.160;2023-07-16T06:59:52;99735.72;;;34.17;49.55
26531;BME280;14201;43.188;24.160;2023-07-16T07:02:18;99732.53;;;34.09;51.06
26531;BME280;14201;43.188;24.160;2023-07-16T07:04:44;99735.16;;;34.10;49.51
26531;BME280;14201;43.188;24.160;2023-07-16T07:07:10;99735.72;;;34.17;50.28
26531;BME280;14201;43.188;24.160;2023-07-16T07:09:36;99730.34;;;34.33;49.05
26531;BME280;14201;43.188;24.160;2023-07-16T07:12:01;99727.78;;;34.47;50.62
26531;BME280;14201;43.188;24.160;2023-07-16T07:14:27;99729.31;;;34.69;50.03
26531;BME280;14201;43.188;24.160;2023-07-16T07:16:53;99731.22;;;34.83;48.49
26531;BME280;14201;43.188;24.160;2023-07-16T07:19:19;99735.41;;;35.20;48.93
26531;BME280;14201;43.188;24.160;2023-07-16T07:21:44;99738.16;;;35.51;46.90
26531;BME280;14201;43.188;24.160;2023-07-16T07:24:10;99733.34;;;35.86;46.10
26531;BME280;14201;43.188;24.160;2023-07-16T07:26:36;99734.28;;;35.71;45.53
26531;BME280;14201;43.188;24.160;2023-07-16T07:29:01;99740.31;;;35.76;46.24
26531;BME280;14201;43.188;24.160;2023-07-16T07:31:27;99735.16;;;35.55;45.55
26531;BME280;14201;43.188;24.160;2023-07-16T07:33:53;99732.16;;;35.76;44.62
26531;BME280;14201;43.188;24.160;2023-07-16T07:36:19;99741.56;;;35.84;46.07
26531;BME280;14201;43.188;24.160;2023-07-16T07:38:45;99736.66;;;35.91;45.13
26531;BME280;14201;43.188;24.160;2023-07-16T07:41:11;99745.97;;;36.16;45.97
26531;BME280;14201;43.188;24.160;2023-07-16T07:43:36;99734.63;;;35.64;46.39
26531;BME280;14201;43.188;24.160;2023-07-16T07:46:02;99734.72;;;35.93;47.08
26531;BME280;14201;43.188;24.160;2023-07-16T07:48:28;99735.22;;;36.14;44.31
26531;BME280;14201;43.188;24.160;2023-07-16T07:50:54;99733.53;;;36.28;44.66
26531;BME280;14201;43.188;24.160;2023-07-16T07:53:20;99732.06;;;36.65;43.07
26531;BME280;14201;43.188;24.160;2023-07-16T07:55:46;99737.47;;;36.79;44.34
26531;BME280;14201;43.188;24.160;2023-07-16T07:58:11;99739.03;;;37.11;42.97
26531;BME280;14201;43.188;24.160;2023-07-16T08:00:38;99727.69;;;37.18;42.37
26531;BME280;14201;43.188;24.160;2023-07-16T08:03:04;99735.72;;;36.78;43.16
26531;BME280;14201;43.188;24.160;2023-07-16T08:05:30;99734.94;;;36.62;43.88
26531;BME280;14201;43.188;24.160;2023-07-16T08:07:55;99742.81;;;36.81;45.01
26531;BME280;14201;43.188;24.160;2023-07-16T08:10:24;99732.25;;;37.18;43.33
26531;BME280;14201;43.188;24.160;2023-07-16T08:12:50;99733.75;;;37.36;42.07
26531;BME280;14201;43.188;24.160;2023-07-16T08:15:15;99736.91;;;37.43;40.73
26531;BME280;14201;43.188;24.160;2023-07-16T08:17:42;99737.78;;;36.75;41.07
26531;BME280;14201;43.188;24.160;2023-07-16T08:20:08;99735.84;;;37.04;41.30
26531;BME280;14201;43.188;24.160;2023-07-16T08:22:34;99736.50;;;36.80;40.06
26531;BME280;14201;43.188;24.160;2023-07-16T08:25:00;99732.44;;;36.59;42.67
26531;BME280;14201;43.188;24.160;2023-07-16T08:27:26;99740.91;;;36.25;42.14
26531;BME280;14201;43.188;24.160;2023-07-16T08:29:51;99736.03;;;36.45;41.20
26531;BME280;14201;43.188;24.160;2023-07-16T08:32:18;99741.66;;;36.71;42.65
26531;BME280;14201;43.188;24.160;2023-07-16T08:34:44;99735.75;;;37.05;40.30
26531;BME280;14201;43.188;24.160;2023-07-16T08:37:10;99737.16;;;37.53;41.44
26531;BME280;14201;43.188;24.160;2023-07-16T08:39:36;99738.19;;;37.90;40.09
26531;BME280;14201;43.188;24.160;2023-07-16T08:42:01;99743.38;;;38.33;37.83
26531;BME280;14201;43.188;24.160;2023-07-16T08:44:28;99737.03;;;37.94;38.11
26531;BME280;14201;43.188;24.160;2023-07-16T08:46:54;99741.00;;;37.63;37.98
26531;BME280;14201;43.188;24.160;2023-07-16T08:49:22;99743.09;;;37.72;36.84
26531;BME280;14201;43.188;24.160;2023-07-16T08:51:49;99735.84;;;37.98;39.19
26531;BME280;14201;43.188;24.160;2023-07-16T08:54:15;99727.53;;;37.61;38.67
26531;BME280;14201;43.188;24.160;2023-07-16T08:56:43;99735.16;;;37.82;37.39
26531;BME280;14201;43.188;24.160;2023-07-16T08:59:10;99732.16;;;38.25;36.77
26531;BME280;14201;43.188;24.160;2023-07-16T09:01:37;99730.50;;;38.48;37.29
26531;BME280;14201;43.188;24.160;2023-07-16T09:04:03;99734.44;;;38.94;35.55
26531;BME280;14201;43.188;24.160;2023-07-16T09:06:30;99734.44;;;39.31;34.65
26531;BME280;14201;43.188;24.160;2023-07-16T09:08:56;99730.56;;;39.46;34.42
26531;BME280;14201;43.188;24.160;2023-07-16T09:11:21;99722.78;;;38.92;36.11
26531;BME280;14201;43.188;24.160;2023-07-16T09:13:48;99726.88;;;39.58;37.13
26531;BME280;14201;43.188;24.160;2023-07-16T09:16:14;99731.38;;;40.18;34.12
26531;BME280;14201;43.188;24.160;2023-07-16T09:18:43;99731.09;;;40.09;34.79
26531;BME280;14201;43.188;24.160;2023-07-16T09:21:08;99727.69;;;40.41;34.08
26531;BME280;14201;43.188;24.160;2023-07-16T09:23:35;99732.50;;;40.71;33.15
26531;BME280;14201;43.188;24.160;2023-07-16T09:26:00;99732.47;;;41.05;33.94
26531;BME280;14201;43.188;24.160;2023-07-16T09:28:26;99728.69;;;41.29;33.57
26531;BME280;14201;43.188;24.160;2023-07-16T09:30:52;99731.47;;;41.50;33.42
26531;BME280;14201;43.188;24.160;2023-07-16T09:33:20;99721.56;;;41.59;32.16
26531;BME280;14201;43.188;24.160;2023-07-16T09:35:50;99725.09;;;40.40;33.40
26531;BME280;14201;43.188;24.160;2023-07-16T09:38:16;99719.16;;;39.88;33.25
26531;BME280;14201;43.188;24.160;2023-07-16T09:40:43;99724.34;;;40.38;32.67
26531;BME280;14201;43.188;24.160;2023-07-16T09:43:10;99721.34;;;40.63;33.03
26531;BME280;14201;43.188;24.160;2023-07-16T09:45:36;99716.63;;;40.65;33.10
26531;BME280;14201;43.188;24.160;2023-07-16T09:48:05;99725.44;;;40.91;34.16
26531;BME280;14201;43.188;24.160;2023-07-16T09:50:35;99713.94;;;41.09;34.43
26531;BME280;14201;43.188;24.160;2023-07-16T09:53:03;99712.91;;;41.54;32.96
26531;BME280;14201;43.188;24.160;2023-07-16T09:55:31;99711.34;;;41.93;33.24
26531;BME280;14201;43.188;24.160;2023-07-16T09:58:00;99710.34;;;42.15;31.11
26531;BME280;14201;43.188;24.160;2023-07-16T10:00:27;99709.59;;;42.44;30.71
26531;BME280;14201;43.188;24.160;2023-07-16T10:02:54;99711.59;;;42.73;30.39
26531;BME280;14201;43.188;24.160;2023-07-16T10:05:25;99706.81;;;42.75;30.43
26531;BME280;14201;43.188;24.160;2023-07-16T10:07:58;99702.84;;;41.54;31.65
26531;BME280;14201;43.188;24.160;2023-07-16T10:10:45;99702.94;;;42.06;32.34
26531;BME280;14201;43.188;24.160;2023-07-16T10:13:14;99700.94;;;42.39;32.10
26531;BME280;14201;43.188;24.160;2023-07-16T10:15:54;99706.81;;;42.75;32.54
26531;BME280;14201;43.188;24.160;2023-07-16T10:18:27;99700.56;;;43.03;31.48
26531;BME280;14201;43.188;24.160;2023-07-16T10:21:06;99705.50;;;43.29;30.16
26531;BME280;14201;43.188;24.160;2023-07-16T10:23:47;99698.53;;;43.15;31.67
26531;BME280;14201;43.188;24.160;2023-07-16T10:26:26;99703.13;;;42.14;30.08
26531;BME280;14201;43.188;24.160;2023-07-16T10:28:53;99695.78;;;40.53;34.19
26531;BME280;14201;43.188;24.160;2023-07-16T10:31:26;99691.38;;;39.83;34.54
26531;BME280;14201;43.188;24.160;2023-07-16T10:33:58;99690.94;;;40.00;34.95
26531;BME280;14201;43.188;24.160;2023-07-16T10:36:24;99690.94;;;39.65;34.71
26531;BME280;14201;43.188;24.160;2023-07-16T10:38:50;99693.63;;;39.89;34.09
26531;BME280;14201;43.188;24.160;2023-07-16T10:41:17;99692.31;;;39.59;33.92
26531;BME280;14201;43.188;24.160;2023-07-16T10:43:42;99689.03;;;39.89;36.46
26531;BME280;14201;43.188;24.160;2023-07-16T10:46:09;99682.38;;;39.58;35.76
26531;BME280;14201;43.188;24.160;2023-07-16T10:48:35;99676.69;;;39.37;34.78
26531;BME280;14201;43.188;24.160;2023-07-16T10:51:00;99672.03;;;39.15;35.58
26531;BME280;14201;43.188;24.160;2023-07-16T10:53:26;99668.72;;;39.23;35.12
26531;BME280;14201;43.188;24.160;2023-07-16T10:55:52;99673.03;;;39.49;37.49
26531;BME280;14201;43.188;24.160;2023-07-16T10:58:18;99662.66;;;39.54;36.20
26531;BME280;14201;43.188;24.160;2023-07-16T11:00:44;99668.47;;;39.96;34.89
26531;BME280;14201;43.188;24.160;2023-07-16T11:03:10;99672.56;;;40.36;34.09
26531;BME280;14201;43.188;24.160;2023-07-16T11:05:39;99666.63;;;40.20;33.50
26531;BME280;14201;43.188;24.160;2023-07-16T11:08:05;99660.75;;;40.02;34.78
26531;BME280;14201;43.188;24.160;2023-07-16T11:10:31;99662.00;;;40.31;33.95
26531;BME280;14201;43.188;24.160;2023-07-16T11:12:56;99654.31;;;40.14;33.86
26531;BME280;14201;43.188;24.160;2023-07-16T11:15:34;99656.50;;;40.65;35.24
26531;BME280;14201;43.188;24.160;2023-07-16T11:18:03;99658.25;;;41.21;31.69
26531;BME280;14201;43.188;24.160;2023-07-16T11:20:29;99661.91;;;41.64;32.60
26531;BME280;14201;43.188;24.160;2023-07-16T11:22:59;99662.47;;;42.09;30.44
26531;BME280;14201;43.188;24.160;2023-07-16T11:25:28;99664.97;;;42.01;31.25
26531;BME280;14201;43.188;24.160;2023-07-16T11:27:55;99648.97;;;42.58;30.52
26531;BME280;14201;43.188;24.160;2023-07-16T11:30:24;99655.19;;;42.70;30.08
26531;BME280;14201;43.188;24.160;2023-07-16T11:32:51;99648.28;;;42.85;29.39
26531;BME280;14201;43.188;24.160;2023-07-16T11:35:18;99654.09;;;43.12;29.25
26531;BME280;14201;43.188;24.160;2023-07-16T11:37:44;99659.88;;;43.38;28.83
26531;BME280;14201;43.188;24.160;2023-07-16T11:40:15;99652.91;;;43.63;28.41
26531;BME280;14201;43.188;24.160;2023-07-16T11:42:41;99657.81;;;43.79;28.00
26531;BME280;14201;43.188;24.160;2023-07-16T11:45:22;99646.25;;;43.75;28.30
26531;BME280;14201;43.188;24.160;2023-07-16T11:47:54;99652.88;;;43.92;29.01
26531;BME280;14201;43.188;24.160;2023-07-16T11:50:20;99646.31;;;44.03;29.98
26531;BME280;14201;43.188;24.160;2023-07-16T11:52:54;99648.75;;;44.16;28.36
26531;BME280;14201;43.188;24.160;2023-07-16T11:55:22;99646.94;;;44.34;28.10
26531;BME280;14201;43.188;24.160;2023-07-16T11:57:47;99650.16;;;44.57;26.79
26531;BME280;14201;43.188;24.160;2023-07-16T12:00:13;99648.97;;;44.60;26.59
26531;BME280;14201;43.188;24.160;2023-07-16T12:02:43;99643.78;;;44.75;26.87
26531;BME280;14201;43.188;24.160;2023-07-16T12:05:09;99645.22;;;44.79;27.32
26531;BME280;14201;43.188;24.160;2023-07-16T12:07:38;99646.75;;;44.91;28.15
26531;BME280;14201;43.188;24.160;2023-07-16T12:10:06;99649.97;;;44.59;28.06
26531;BME280;14201;43.188;24.160;2023-07-16T12:12:33;99644.19;;;44.80;26.74
26531;BME280;14201;43.188;24.160;2023-07-16T12:15:01;99642.81;;;44.94;25.67
26531;BME280;14201;43.188;24.160;2023-07-16T12:17:29;99639.03;;;44.77;25.21
26531;BME280;14201;43.188;24.160;2023-07-16T12:19:55;99649.75;;;44.52;25.73
26531;BME280;14201;43.188;24.160;2023-07-16T12:22:22;99642.63;;;44.22;26.57
26531;BME280;14201;43.188;24.160;2023-07-16T12:24:49;99640.97;;;44.01;26.43
26531;BME280;14201;43.188;24.160;2023-07-16T12:27:15;99640.06;;;43.54;26.11
26531;BME280;14201;43.188;24.160;2023-07-16T12:29:42;99639.13;;;43.35;26.80
26531;BME280;14201;43.188;24.160;2023-07-16T12:32:10;99638.22;;;43.15;28.90
26531;BME280;14201;43.188;24.160;2023-07-16T12:34:36;99631.03;;;42.95;29.02
26531;BME280;14201;43.188;24.160;2023-07-16T12:37:02;99636.47;;;42.85;29.48
26531;BME280;14201;43.188;24.160;2023-07-16T12:39:28;99629.66;;;42.60;28.81
26531;BME280;14201;43.188;24.160;2023-07-16T12:41:54;99638.31;;;42.24;29.79
26531;BME280;14201;43.188;24.160;2023-07-16T12:44:19;99628.72;;;42.09;29.13
26531;BME280;14201;43.188;24.160;2023-07-16T12:46:45;99629.19;;;41.62;30.58
26531;BME280;14201;43.188;24.160;2023-07-16T12:49:11;99626.81;;;41.69;30.79
26531;BME280;14201;43.188;24.160;2023-07-16T12:51:37;99627.78;;;41.68;31.28
26531;BME280;14201;43.188;24.160;2023-07-16T12:54:03;99625.09;;;41.57;30.30
26531;BME280;14201;43.188;24.160;2023-07-16T12:56:29;99617.13;;;41.44;30.35